CRM2 weather

Riding Mountain Airport
Riding Mountain, Manitoba, Canada

Public forecast

Using degrees Celsius for public forecast. Weather courtesy of forecast.io.

METAR (pilot weather report)

Closest report is Dauphin Barker Airport, 41.1 nm (76.1 km) NW. Retrieved 2019/05/24 04:00 UTC (16 minutes ago):

CYDN 240400Z AUTO 14004KT 9SM CLR 12/04 A3004 RMK SLP182

TAF (pilot weather forecast)

Forecast is more than 12 hours old.

Closest forecast is Dauphin Barker Airport, 41.1 nm (76.1 km) NW. Retrieved 2019/05/23 00:39 UTC (1 day ago):

TAF CYDN 232338Z 2400/2412 09005KT P6SM SKC BECMG 2402/2404 18008KT RMK FCST BASED ON AUTO OBS. NXT FCST BY 240600Z